Time;durP1;ratioP1;P1;durP2;ratioP2;P2;SDS_P1;SDS_P2;PMS_P1;PMS_P2;Temp;Humidity;BMP_temperature;BMP_pressure;BME280_temperature;BME280_humidity;BME280_pressure;Samples;Min_cycle;Max_cycle;Signal;HPM_P1;HPM_P2
2021/10/12 00:00:33;;;;;;;170.02;110.30;;;7.40;79.90;;;;;;5044182;28;20026;-69
2021/10/12 00:02:58;;;;;;;133.52;90.05;;;7.30;79.50;;;;;;5041562;28;20037;-68
2021/10/12 00:05:24;;;;;;;162.88;106.25;;;7.30;80.10;;;;;;5083924;28;20526;-68
2021/10/12 00:07:50;;;;;;;155.07;102.32;;;7.30;80.40;;;;;;5068940;28;20071;-69
2021/10/12 00:10:15;;;;;;;156.77;104.00;;;7.30;80.10;;;;;;5086756;28;20050;-69
2021/10/12 00:12:41;;;;;;;154.10;106.72;;;7.30;79.90;;;;;;5084377;28;20028;-70
2021/10/12 00:15:08;;;;;;;139.65;89.18;;;7.30;79.70;;;;;;5066080;28;20035;-69
2021/10/12 00:17:34;;;;;;;170.20;108.65;;;7.30;80.40;;;;;;5077542;28;20096;-69
2021/10/12 00:19:59;;;;;;;160.43;106.30;;;7.30;80.20;;;;;;5072719;28;20119;-73
2021/10/12 00:22:25;;;;;;;151.20;101.95;;;7.20;80.00;;;;;;5086093;28;20064;-68
2021/10/12 00:24:51;;;;;;;134.13;91.20;;;7.20;80.50;;;;;;5083252;28;20059;-69
2021/10/12 00:27:17;;;;;;;85.95;60.15;;;7.10;81.00;;;;;;5061033;28;20052;-70
2021/10/12 00:29:42;;;;;;;77.75;53.63;;;7.10;83.10;;;;;;5076788;28;20378;-68
2021/10/12 00:32:09;;;;;;;102.20;64.88;;;7.20;85.20;;;;;;5070326;28;20032;-70
2021/10/12 00:34:35;;;;;;;149.45;100.20;;;7.20;86.50;;;;;;5089224;28;20040;-70
2021/10/12 00:37:00;;;;;;;165.38;109.75;;;7.30;85.40;;;;;;5086591;28;20115;-71
2021/10/12 00:39:26;;;;;;;159.55;105.90;;;7.30;83.80;;;;;;5080049;28;20021;-69
2021/10/12 00:41:52;;;;;;;168.88;110.13;;;7.30;83.30;;;;;;5079526;28;20044;-69
2021/10/12 00:44:19;;;;;;;163.80;108.88;;;7.30;82.80;;;;;;5049282;28;20020;-69
2021/10/12 00:46:44;;;;;;;161.38;105.47;;;7.30;82.30;;;;;;5065722;28;20032;-69
2021/10/12 00:49:11;;;;;;;166.82;108.55;;;7.20;82.10;;;;;;5069837;28;20024;-69
2021/10/12 00:51:37;;;;;;;161.30;109.70;;;7.20;82.00;;;;;;5061005;28;20032;-69
2021/10/12 00:54:02;;;;;;;172.60;113.68;;;7.20;81.80;;;;;;5075386;28;20489;-69
2021/10/12 00:56:28;;;;;;;175.52;116.20;;;7.20;81.60;;;;;;5073313;28;20481;-68
2021/10/12 00:58:54;;;;;;;174.05;113.30;;;7.20;81.60;;;;;;5084035;28;20375;-69
2021/10/12 01:01:20;;;;;;;168.38;111.78;;;7.20;81.50;;;;;;5057379;28;20110;-73
2021/10/12 01:03:46;;;;;;;172.77;112.65;;;7.20;81.20;;;;;;5056811;28;20048;-70
2021/10/12 01:06:12;;;;;;;173.05;113.97;;;7.20;81.20;;;;;;5067093;28;20044;-69
2021/10/12 01:08:38;;;;;;;175.38;116.18;;;7.20;81.90;;;;;;5075034;28;20036;-69
2021/10/12 01:11:04;;;;;;;172.55;112.13;;;7.10;81.90;;;;;;5064013;28;20025;-68
2021/10/12 01:13:30;;;;;;;166.95;110.95;;;7.10;81.50;;;;;;5076586;28;20104;-70
2021/10/12 01:15:56;;;;;;;170.93;114.80;;;7.20;81.70;;;;;;5077412;28;20493;-68
2021/10/12 01:18:22;;;;;;;174.68;117.80;;;7.20;81.60;;;;;;5075821;28;20032;-72
2021/10/12 01:20:51;;;;;;;179.50;118.38;;;7.20;81.50;;;;;;5064691;28;20508;-69
2021/10/12 01:23:16;;;;;;;172.77;114.93;;;7.10;81.50;;;;;;5093111;28;20106;-69
2021/10/12 01:25:42;;;;;;;182.68;116.53;;;7.10;81.60;;;;;;5087546;28;20120;-68
2021/10/12 01:28:08;;;;;;;176.10;114.05;;;7.20;81.80;;;;;;5084314;28;20393;-68
2021/10/12 01:30:36;;;;;;;176.57;114.25;;;7.10;81.90;;;;;;5079972;28;20043;-72
2021/10/12 01:33:03;;;;;;;174.82;114.95;;;7.10;82.10;;;;;;5072050;28;20374;-70
2021/10/12 01:35:28;;;;;;;180.40;122.88;;;7.10;82.40;;;;;;5086017;28;20032;-69
2021/10/12 01:37:54;;;;;;;179.05;118.47;;;7.10;82.40;;;;;;5089575;28;20432;-68
2021/10/12 01:40:20;;;;;;;165.65;112.38;;;7.10;82.60;;;;;;5084420;28;20420;-68
2021/10/12 01:42:46;;;;;;;173.75;114.18;;;7.10;82.60;;;;;;5076912;28;20075;-69
2021/10/12 01:45:12;;;;;;;164.45;115.40;;;7.10;82.70;;;;;;5054785;28;20036;-69
2021/10/12 01:47:39;;;;;;;177.88;115.60;;;7.10;83.00;;;;;;5063442;28;20035;-69
2021/10/12 01:50:06;;;;;;;161.25;109.20;;;7.10;82.90;;;;;;5063978;28;20032;-69
2021/10/12 01:52:32;;;;;;;155.00;103.22;;;7.10;83.10;;;;;;5075284;28;20024;-70
2021/10/12 01:54:59;;;;;;;164.70;111.25;;;7.20;83.10;;;;;;5074279;28;20035;-69
2021/10/12 01:57:25;;;;;;;162.35;112.78;;;7.20;82.80;;;;;;5082750;28;20036;-69
2021/10/12 01:59:50;;;;;;;164.02;112.75;;;7.30;82.60;;;;;;5086567;28;20020;-69
2021/10/12 02:02:16;;;;;;;166.82;113.47;;;7.30;82.60;;;;;;5064462;28;20466;-69
2021/10/12 02:04:42;;;;;;;160.98;106.45;;;7.30;82.70;;;;;;5089456;28;20471;-69
2021/10/12 02:07:08;;;;;;;157.27;107.28;;;7.30;83.00;;;;;;5081422;28;20081;-70
2021/10/12 02:09:34;;;;;;;167.40;109.95;;;7.40;82.90;;;;;;5074242;28;20105;-69
2021/10/12 02:12:00;;;;;;;150.75;99.82;;;7.30;82.60;;;;;;5074027;28;20020;-68
2021/10/12 02:14:25;;;;;;;147.27;99.43;;;7.30;83.00;;;;;;5082472;28;20116;-69
2021/10/12 02:16:51;;;;;;;160.82;107.03;;;7.40;83.30;;;;;;5061381;28;20024;-69
2021/10/12 02:19:17;;;;;;;125.60;87.20;;;7.40;82.90;;;;;;5058131;28;20530;-68
2021/10/12 02:21:43;;;;;;;109.85;74.47;;;7.40;83.70;;;;;;5081791;28;20444;-67
2021/10/12 02:24:09;;;;;;;98.68;66.38;;;7.50;84.70;;;;;;5061915;28;20474;-69
2021/10/12 02:26:35;;;;;;;151.15;100.47;;;7.60;85.50;;;;;;5068867;28;20140;-69
2021/10/12 02:29:01;;;;;;;148.02;101.95;;;7.60;84.30;;;;;;5063837;28;20048;-68
2021/10/12 02:31:27;;;;;;;120.35;82.28;;;7.60;83.40;;;;;;5059195;28;20032;-70
2021/10/12 02:33:53;;;;;;;147.88;98.40;;;7.50;83.90;;;;;;5047203;28;20107;-69
2021/10/12 02:36:18;;;;;;;162.20;105.20;;;7.50;83.30;;;;;;5061046;28;20443;-70
2021/10/12 02:38:44;;;;;;;142.32;97.00;;;7.50;82.90;;;;;;5072816;28;20119;-69
2021/10/12 02:41:10;;;;;;;73.65;48.95;;;7.50;83.10;;;;;;5069816;28;20031;-68
2021/10/12 02:43:36;;;;;;;71.60;48.17;;;7.50;85.60;;;;;;5068633;28;20055;-70
2021/10/12 02:46:01;;;;;;;109.07;74.28;;;7.60;87.80;;;;;;5084650;28;20047;-69
2021/10/12 02:48:27;;;;;;;106.22;74.25;;;7.70;88.10;;;;;;5092765;28;20036;-68
2021/10/12 02:50:53;;;;;;;107.38;71.15;;;7.70;88.00;;;;;;5078014;28;20025;-70
2021/10/12 02:53:18;;;;;;;120.40;81.88;;;7.80;87.80;;;;;;5078620;28;20028;-69
2021/10/12 02:55:45;;;;;;;80.75;58.92;;;7.80;87.30;;;;;;5071502;28;20033;-68
2021/10/12 02:58:11;;;;;;;64.68;47.17;;;7.80;88.70;;;;;;5055714;28;20347;-69
2021/10/12 03:00:37;;;;;;;100.60;64.65;;;7.80;90.30;;;;;;5059202;28;20043;-69
2021/10/12 03:03:03;;;;;;;89.25;57.92;;;7.80;90.00;;;;;;5071266;28;20057;-68
2021/10/12 03:05:29;;;;;;;98.47;67.32;;;7.80;90.00;;;;;;5054810;28;20040;-69
2021/10/12 03:07:55;;;;;;;102.43;68.40;;;7.90;89.80;;;;;;5075843;28;20124;-69
2021/10/12 03:10:21;;;;;;;131.27;85.40;;;7.90;89.00;;;;;;5081109;28;20150;-67
2021/10/12 03:12:47;;;;;;;124.80;83.28;;;7.90;87.70;;;;;;5077929;28;20522;-72
2021/10/12 03:15:13;;;;;;;149.85;91.85;;;7.80;86.70;;;;;;5078758;28;20107;-69
2021/10/12 03:17:38;;;;;;;141.88;94.25;;;7.70;88.30;;;;;;5063501;28;20075;-69
2021/10/12 03:20:06;;;;;;;145.65;92.40;;;7.60;86.90;;;;;;5084578;28;20371;-72
2021/10/12 03:22:32;;;;;;;148.05;93.63;;;7.50;85.80;;;;;;5064109;28;20039;-69
2021/10/12 03:24:57;;;;;;;157.55;101.20;;;7.30;85.20;;;;;;5078646;28;20463;-69
2021/10/12 03:27:23;;;;;;;154.02;98.07;;;7.20;84.70;;;;;;5083706;28;20047;-69
2021/10/12 03:29:49;;;;;;;141.52;92.65;;;7.10;84.50;;;;;;5085080;28;20467;-69
2021/10/12 03:32:14;;;;;;;142.77;91.65;;;7.00;84.80;;;;;;5069254;28;20039;-69
2021/10/12 03:34:41;;;;;;;151.25;93.85;;;6.90;86.40;;;;;;5072986;28;20037;-70
2021/10/12 03:37:06;;;;;;;152.00;90.65;;;6.90;87.90;;;;;;5092866;28;20024;-69
2021/10/12 03:39:32;;;;;;;146.57;92.82;;;6.90;88.40;;;;;;5049660;28;20028;-70
2021/10/12 03:41:58;;;;;;;129.18;83.45;;;7.00;87.80;;;;;;5066722;28;20123;-69
2021/10/12 03:44:24;;;;;;;136.13;85.72;;;7.00;89.10;;;;;;5075153;28;20078;-68
2021/10/12 03:46:51;;;;;;;135.35;86.15;;;7.00;89.20;;;;;;5064965;28;20069;-69
2021/10/12 03:49:17;;;;;;;144.43;92.50;;;7.00;88.40;;;;;;5085032;28;20039;-72
2021/10/12 03:51:43;;;;;;;86.60;57.40;;;6.90;87.30;;;;;;5075106;28;20021;-69
2021/10/12 03:54:13;;;;;;;85.82;56.30;;;6.90;90.30;;;;;;5065744;28;20045;-69
2021/10/12 03:56:39;;;;;;;104.97;68.15;;;6.90;92.70;;;;;;5051916;28;20029;-69
2021/10/12 03:59:04;;;;;;;122.20;77.43;;;7.00;92.80;;;;;;5077705;28;20035;-69
2021/10/12 04:01:30;;;;;;;121.30;77.03;;;7.00;94.00;;;;;;5077742;28;20024;-70
2021/10/12 04:03:56;;;;;;;128.77;85.68;;;7.10;94.20;;;;;;5080649;28;20049;-71
2021/10/12 04:06:22;;;;;;;128.27;85.18;;;7.20;94.10;;;;;;5067273;28;20035;-67
2021/10/12 04:08:47;;;;;;;122.50;78.38;;;7.20;94.00;;;;;;5060221;28;20467;-68
2021/10/12 04:11:13;;;;;;;125.20;82.32;;;7.10;93.40;;;;;;5062023;28;20024;-72
2021/10/12 04:13:39;;;;;;;132.60;85.03;;;7.10;93.10;;;;;;5054170;28;20370;-70
2021/10/12 04:16:04;;;;;;;128.75;87.40;;;7.10;92.00;;;;;;5066954;28;20114;-68
2021/10/12 04:18:30;;;;;;;128.20;85.47;;;7.10;91.30;;;;;;5071385;28;20028;-68
2021/10/12 04:20:56;;;;;;;166.23;93.80;;;7.00;90.80;;;;;;5064213;28;20025;-68
2021/10/12 04:23:22;;;;;;;138.68;88.68;;;7.00;90.30;;;;;;5083004;28;20024;-67
2021/10/12 04:25:48;;;;;;;119.57;80.68;;;7.00;90.40;;;;;;5083533;28;20097;-68
2021/10/12 04:28:14;;;;;;;120.85;82.22;;;7.00;91.20;;;;;;5069076;28;20049;-68
2021/10/12 04:30:42;;;;;;;136.10;84.85;;;7.10;91.20;;;;;;5080788;28;20035;-70
2021/10/12 04:33:08;;;;;;;132.48;80.95;;;7.20;90.40;;;;;;5078718;28;20082;-68
2021/10/12 04:35:34;;;;;;;128.20;80.10;;;7.30;90.40;;;;;;5075041;28;20029;-66
2021/10/12 04:38:00;;;;;;;129.18;82.78;;;7.30;90.40;;;;;;5075718;28;20031;-67
2021/10/12 04:40:26;;;;;;;142.13;88.57;;;7.30;91.10;;;;;;5060182;28;20039;-67
2021/10/12 04:42:52;;;;;;;135.40;83.85;;;7.40;91.40;;;;;;5059777;28;20028;-74
2021/10/12 04:45:18;;;;;;;139.10;83.13;;;7.50;92.00;;;;;;5057946;28;20036;-73
2021/10/12 04:47:44;;;;;;;118.47;76.93;;;7.60;91.50;;;;;;5056675;28;20043;-76
2021/10/12 04:50:10;;;;;;;122.72;77.68;;;7.70;90.20;;;;;;5056496;28;20374;-75
2021/10/12 04:52:40;;;;;;;120.45;76.82;;;7.70;88.60;;;;;;5069368;28;20028;-74
2021/10/12 04:55:06;;;;;;;116.75;76.85;;;7.70;87.90;;;;;;5062681;28;20033;-68
2021/10/12 04:57:32;;;;;;;114.38;71.28;;;7.70;87.60;;;;;;5061768;28;20036;-68
2021/10/12 04:59:57;;;;;;;112.93;74.05;;;7.80;87.00;;;;;;5059104;28;20115;-68
2021/10/12 05:02:23;;;;;;;110.80;69.00;;;7.90;86.50;;;;;;5067716;28;20028;-67
2021/10/12 05:04:48;;;;;;;99.63;67.50;;;7.90;86.30;;;;;;5072480;28;20048;-76
2021/10/12 05:07:14;;;;;;;96.43;61.67;;;8.00;86.60;;;;;;5056576;28;20116;-78
2021/10/12 05:09:40;;;;;;;100.13;61.80;;;8.00;86.90;;;;;;5060345;28;20101;-68
2021/10/12 05:12:06;;;;;;;97.10;63.25;;;8.10;86.70;;;;;;5084984;28;20060;-70
2021/10/12 05:14:32;;;;;;;102.40;65.25;;;8.10;86.60;;;;;;5067856;28;20140;-69
2021/10/12 05:17:00;;;;;;;114.50;69.85;;;8.20;86.50;;;;;;5067935;28;20478;-72
2021/10/12 05:19:26;;;;;;;128.82;76.80;;;8.20;86.40;;;;;;5059679;28;20025;-72
2021/10/12 05:21:52;;;;;;;119.70;70.35;;;8.30;86.10;;;;;;5056315;28;20055;-71
2021/10/12 05:24:17;;;;;;;132.18;74.78;;;8.30;85.90;;;;;;5063417;28;20035;-71
2021/10/12 05:26:43;;;;;;;111.00;68.50;;;8.30;86.00;;;;;;5078089;28;20504;-71
2021/10/12 05:29:12;;;;;;;107.55;67.63;;;8.40;86.50;;;;;;5074345;28;20150;-70
2021/10/12 05:31:40;;;;;;;108.40;65.85;;;8.50;86.70;;;;;;5063455;28;20036;-70
2021/10/12 05:34:06;;;;;;;114.63;67.78;;;8.60;86.80;;;;;;5078366;28;20104;-70
2021/10/12 05:36:32;;;;;;;99.80;63.38;;;8.70;86.80;;;;;;5060501;28;20051;-68
2021/10/12 05:38:58;;;;;;;110.15;68.22;;;8.90;86.70;;;;;;5063349;28;20024;-70
2021/10/12 05:41:23;;;;;;;105.68;65.63;;;9.00;86.70;;;;;;5083654;28;20040;-70
2021/10/12 05:43:49;;;;;;;109.75;70.95;;;9.20;86.40;;;;;;5057850;28;20024;-70
2021/10/12 05:46:15;;;;;;;105.88;65.68;;;9.30;86.00;;;;;;5085051;28;20044;-77
2021/10/12 05:48:40;;;;;;;114.85;70.00;;;9.40;85.80;;;;;;5082249;28;20020;-78
2021/10/12 05:51:08;;;;;;;106.60;65.68;;;9.40;86.00;;;;;;5075341;28;20065;-78
2021/10/12 05:53:43;;;;;;;159.30;86.57;;;9.60;86.10;;;;;;5059214;28;20035;-70
2021/10/12 05:56:40;;;;;;;125.95;73.93;;;9.70;86.00;;;;;;5067468;28;20057;-68
2021/10/12 05:58:56;;;;;;;119.60;68.05;;;9.90;85.90;;;;;;5069670;28;20032;-69
2021/10/12 06:01:23;;;;;;;128.70;69.53;;;10.10;85.70;;;;;;5053684;28;20028;-73
2021/10/12 06:03:49;;;;;;;109.72;66.25;;;10.40;85.70;;;;;;5037944;28;20037;-63
2021/10/12 06:06:16;;;;;;;101.97;61.67;;;10.60;85.10;;;;;;5075589;28;20119;-68
2021/10/12 06:08:43;;;;;;;102.03;62.88;;;10.70;84.40;;;;;;5068193;28;20032;-68
2021/10/12 06:11:09;;;;;;;118.45;64.63;;;10.90;83.80;;;;;;5038531;28;20051;-72
2021/10/12 06:13:38;;;;;;;108.25;62.97;;;11.10;83.10;;;;;;5033362;28;20048;-69
2021/10/12 06:16:04;;;;;;;111.65;61.58;;;11.30;82.60;;;;;;5048020;28;20028;-70
2021/10/12 06:18:30;;;;;;;102.05;60.85;;;11.50;82.30;;;;;;5054456;28;20024;-69
2021/10/12 06:20:56;;;;;;;113.80;63.22;;;11.70;81.70;;;;;;5067560;28;20027;-69
2021/10/12 06:23:22;;;;;;;114.78;65.28;;;12.00;80.90;;;;;;5058333;28;20059;-69
2021/10/12 06:25:48;;;;;;;114.55;64.20;;;12.20;80.50;;;;;;5066011;28;20044;-70
2021/10/12 06:28:16;;;;;;;116.95;67.13;;;12.30;79.40;;;;;;5036409;28;20029;-69
2021/10/12 06:30:43;;;;;;;116.05;68.20;;;12.50;78.80;;;;;;5065441;28;20032;-69
2021/10/12 06:33:09;;;;;;;117.25;71.55;;;12.70;77.90;;;;;;5063197;28;20024;-70
2021/10/12 06:35:35;;;;;;;120.38;74.88;;;12.80;77.00;;;;;;5066219;28;20041;-69
2021/10/12 06:38:02;;;;;;;128.77;79.05;;;12.90;76.40;;;;;;5036339;28;20032;-71
2021/10/12 06:40:29;;;;;;;84.60;53.83;;;13.10;76.00;;;;;;5045578;28;20494;-70
2021/10/12 06:42:55;;;;;;;110.70;66.70;;;13.20;75.20;;;;;;5065684;28;20044;-69
2021/10/12 06:45:22;;;;;;;97.57;56.80;;;13.30;74.50;;;;;;5055174;28;20041;-71
2021/10/12 06:47:48;;;;;;;95.57;56.65;;;13.30;73.70;;;;;;5073347;28;20033;-70
2021/10/12 06:50:16;;;;;;;85.18;50.45;;;13.40;73.40;;;;;;5073090;28;20112;-69
2021/10/12 06:52:41;;;;;;;47.67;29.83;;;13.50;73.10;;;;;;5071343;28;20032;-74
2021/10/12 06:55:08;;;;;;;39.55;26.80;;;13.60;72.60;;;;;;5072083;28;20025;-71
2021/10/12 06:57:35;;;;;;;35.65;26.02;;;13.60;72.40;;;;;;5070804;28;20034;-70
2021/10/12 07:00:00;;;;;;;39.50;24.73;;;13.80;72.10;;;;;;5061266;28;20024;-71
2021/10/12 07:02:26;;;;;;;37.63;23.23;;;13.90;71.50;;;;;;5062646;28;20379;-71
2021/10/12 07:04:52;;;;;;;32.13;23.27;;;14.10;71.40;;;;;;5041357;28;20553;-72
2021/10/12 07:07:17;;;;;;;37.88;24.50;;;14.10;70.70;;;;;;5060236;28;20037;-75
2021/10/12 07:09:43;;;;;;;33.20;22.88;;;14.10;70.30;;;;;;5054030;28;20078;-71
2021/10/12 07:12:09;;;;;;;37.58;25.35;;;14.00;70.30;;;;;;5064923;28;20064;-72
2021/10/12 07:14:35;;;;;;;66.80;40.97;;;14.00;70.40;;;;;;5069014;28;20060;-70
2021/10/12 07:17:00;;;;;;;70.15;43.67;;;14.00;70.30;;;;;;5061549;28;20492;-74
2021/10/12 07:19:27;;;;;;;68.72;42.65;;;13.90;69.90;;;;;;5037562;28;20029;-72
2021/10/12 07:21:54;;;;;;;49.65;28.33;;;13.90;70.30;;;;;;5045910;28;20471;-74
2021/10/12 07:24:20;;;;;;;53.95;32.05;;;13.90;70.50;;;;;;5038743;28;20036;-72
2021/10/12 07:26:45;;;;;;;62.55;32.67;;;13.90;70.40;;;;;;5036697;28;20033;-71
2021/10/12 07:29:11;;;;;;;50.28;28.40;;;13.90;70.20;;;;;;5036131;28;20368;-76
2021/10/12 07:31:37;;;;;;;51.05;31.13;;;13.90;69.90;;;;;;5050466;28;20036;-72
2021/10/12 07:34:02;;;;;;;50.45;29.35;;;13.90;69.90;;;;;;5052665;28;20043;-71
2021/10/12 07:36:28;;;;;;;41.90;29.08;;;13.90;69.80;;;;;;5050491;28;20034;-73
2021/10/12 07:38:54;;;;;;;40.67;26.63;;;13.80;69.70;;;;;;5055025;28;20107;-71
2021/10/12 07:41:20;;;;;;;42.65;28.30;;;13.70;69.90;;;;;;5073011;28;20029;-71
2021/10/12 07:43:45;;;;;;;46.50;28.05;;;13.60;70.00;;;;;;5069934;28;20032;-71
2021/10/12 07:46:11;;;;;;;42.63;28.92;;;13.50;70.20;;;;;;5064398;28;20037;-75
2021/10/12 07:48:37;;;;;;;41.90;26.02;;;13.40;70.50;;;;;;5056475;28;20053;-70
2021/10/12 07:51:02;;;;;;;37.25;25.70;;;13.30;70.70;;;;;;5066031;28;20467;-72
2021/10/12 07:53:30;;;;;;;34.63;24.38;;;13.30;71.00;;;;;;5073877;28;20030;-72
2021/10/12 07:55:59;;;;;;;38.00;25.17;;;13.20;71.20;;;;;;5074254;28;20359;-71
2021/10/12 07:58:24;;;;;;;41.13;28.65;;;13.10;71.70;;;;;;5067022;28;20035;-71
2021/10/12 08:00:50;;;;;;;38.22;26.33;;;13.20;72.00;;;;;;5066658;28;20033;-75
2021/10/12 08:03:17;;;;;;;38.38;25.52;;;13.20;71.90;;;;;;5055801;28;20094;-71
2021/10/12 08:05:42;;;;;;;45.63;30.23;;;13.40;71.80;;;;;;5042897;28;20048;-71
2021/10/12 08:08:08;;;;;;;40.45;27.80;;;13.50;71.40;;;;;;5048078;28;20120;-72
2021/10/12 08:10:35;;;;;;;40.83;26.15;;;13.70;70.80;;;;;;5048842;28;20104;-70
2021/10/12 08:13:04;;;;;;;43.25;26.55;;;13.90;70.40;;;;;;5070287;28;20382;-72
2021/10/12 08:15:31;;;;;;;59.63;37.13;;;14.10;70.30;;;;;;5066373;28;20036;-71
2021/10/12 08:17:57;;;;;;;65.65;39.20;;;14.30;69.30;;;;;;5040839;28;20398;-71
2021/10/12 08:20:23;;;;;;;53.47;35.45;;;14.40;68.70;;;;;;5058069;28;20029;-72
2021/10/12 08:22:49;;;;;;;47.65;31.15;;;14.50;67.80;;;;;;5065022;28;20107;-71
2021/10/12 08:25:15;;;;;;;46.70;27.40;;;14.60;67.20;;;;;;5051487;28;20201;-75
2021/10/12 08:27:41;;;;;;;40.28;26.10;;;14.60;67.00;;;;;;5049932;28;20032;-71
2021/10/12 08:30:11;;;;;;;36.10;24.70;;;14.80;67.20;;;;;;5070053;28;20028;-73
2021/10/12 08:32:38;;;;;;;38.67;24.33;;;14.90;67.30;;;;;;5052225;28;20025;-71
2021/10/12 08:35:04;;;;;;;36.58;23.48;;;15.20;67.60;;;;;;5037428;28;20095;-71
2021/10/12 08:37:30;;;;;;;35.50;24.25;;;15.40;67.50;;;;;;5056098;28;20512;-71
2021/10/12 08:39:56;;;;;;;37.92;22.95;;;15.50;66.40;;;;;;5074005;28;20025;-71
2021/10/12 08:42:28;;;;;;;32.97;23.15;;;15.80;66.10;;;;;;5063763;28;20126;-71
2021/10/12 08:44:59;;;;;;;40.47;23.92;;;16.00;65.10;;;;;;5052058;28;20047;-72
2021/10/12 08:47:27;;;;;;;42.00;25.92;;;16.10;64.60;;;;;;5075615;28;20031;-71
2021/10/12 08:49:53;;;;;;;36.20;23.92;;;16.50;64.20;;;;;;5075223;28;20486;-69
2021/10/12 08:52:20;;;;;;;32.38;21.95;;;17.10;63.50;;;;;;5054836;28;20374;-72
2021/10/12 08:54:47;;;;;;;29.90;21.15;;;17.90;62.00;;;;;;5056205;28;20055;-71
2021/10/12 08:57:33;;;;;;;34.65;21.63;;;18.70;59.20;;;;;;5073788;28;20021;-70
2021/10/12 09:00:03;;;;;;;47.50;26.33;;;19.50;57.40;;;;;;5073698;28;20021;-72
2021/10/12 09:02:29;;;;;;;32.33;21.08;;;20.00;56.30;;;;;;5065437;28;20115;-71
2021/10/12 09:04:55;;;;;;;42.00;23.58;;;20.20;53.90;;;;;;5068830;28;20041;-70
2021/10/12 09:07:22;;;;;;;45.65;23.92;;;20.60;53.30;;;;;;5054236;28;20071;-75
2021/10/12 09:09:50;;;;;;;32.03;22.13;;;20.80;52.90;;;;;;5073369;28;20033;-71
2021/10/12 09:12:15;;;;;;;31.95;22.48;;;20.70;52.20;;;;;;5066322;28;20371;-70
2021/10/12 09:14:58;;;;;;;34.03;23.95;;;20.60;51.90;;;;;;5065522;28;21049;-71
2021/10/12 09:17:33;;;;;;;37.28;24.05;;;20.70;51.40;;;;;;5047195;28;20029;-73
2021/10/12 09:20:01;;;;;;;33.58;23.90;;;20.70;50.90;;;;;;5043157;28;20025;-72
2021/10/12 09:22:28;;;;;;;30.70;21.90;;;20.80;50.80;;;;;;5055228;28;20036;-72
2021/10/12 09:25:08;;;;;;;32.17;20.90;;;20.80;50.30;;;;;;5055103;28;20124;-69
2021/10/12 09:27:56;;;;;;;32.20;21.10;;;21.00;50.10;;;;;;5070333;28;20078;-69
2021/10/12 09:30:29;;;;;;;32.15;22.70;;;20.80;50.30;;;;;;5073121;28;20029;-71
2021/10/12 09:33:11;;;;;;;34.25;20.55;;;20.70;50.50;;;;;;5065114;28;20039;-70
2021/10/12 09:35:37;;;;;;;34.20;19.45;;;20.30;51.00;;;;;;5046672;28;20056;-70
2021/10/12 09:38:08;;;;;;;34.13;19.42;;;20.00;51.60;;;;;;5073134;28;20478;-71
2021/10/12 09:40:39;;;;;;;32.95;20.02;;;19.80;52.20;;;;;;5072071;28;20040;-72
2021/10/12 09:43:06;;;;;;;30.23;19.85;;;19.70;52.30;;;;;;5053951;28;20028;-71
2021/10/12 09:45:34;;;;;;;28.15;19.67;;;19.70;52.70;;;;;;5072505;28;20461;-72
2021/10/12 09:48:00;;;;;;;26.25;19.35;;;19.80;52.80;;;;;;5064881;28;20032;-71
2021/10/12 09:50:34;;;;;;;30.98;20.30;;;20.00;52.80;;;;;;5072814;28;20035;-71
2021/10/12 09:53:00;;;;;;;28.80;17.92;;;20.20;52.20;;;;;;5064373;28;20031;-71
2021/10/12 09:55:36;;;;;;;24.40;18.25;;;20.50;51.60;;;;;;5064714;28;20029;-71
2021/10/12 09:58:04;;;;;;;28.27;18.70;;;20.50;50.70;;;;;;5053547;28;20054;-71
2021/10/12 10:00:30;;;;;;;27.60;19.60;;;20.50;50.70;;;;;;5068301;28;20036;-71
2021/10/12 10:02:57;;;;;;;28.77;19.33;;;20.50;50.80;;;;;;5038113;28;20144;-71
2021/10/12 10:05:23;;;;;;;28.95;19.00;;;20.40;50.70;;;;;;5072566;28;20462;-71
2021/10/12 10:07:51;;;;;;;30.73;18.63;;;20.00;50.80;;;;;;5038270;28;20127;-72
2021/10/12 10:10:17;;;;;;;27.83;18.90;;;19.70;51.00;;;;;;5053535;28;20052;-70
2021/10/12 10:12:43;;;;;;;25.73;19.35;;;19.30;51.70;;;;;;5070368;28;20055;-72
2021/10/12 10:15:09;;;;;;;28.50;20.70;;;19.00;52.40;;;;;;5035784;28;20021;-70
2021/10/12 10:17:35;;;;;;;30.65;20.08;;;18.70;52.80;;;;;;5035396;28;20096;-69
2021/10/12 10:20:07;;;;;;;31.33;19.35;;;18.30;53.00;;;;;;5043833;28;20029;-71
2021/10/12 10:22:44;;;;;;;28.60;20.00;;;18.10;53.50;;;;;;5064458;28;20530;-68
2021/10/12 10:25:29;;;;;;;26.83;16.80;;;17.80;53.80;;;;;;5063520;28;20117;-71
2021/10/12 10:27:57;;;;;;;26.77;17.15;;;17.60;52.90;;;;;;5066827;28;20074;-71
2021/10/12 10:30:33;;;;;;;28.20;17.48;;;17.30;52.90;;;;;;5072176;28;20486;-70
2021/10/12 10:33:04;;;;;;;29.92;18.52;;;17.10;53.80;;;;;;5063456;28;20028;-70
2021/10/12 10:35:45;;;;;;;34.63;23.77;;;17.00;53.50;;;;;;5072258;28;20375;-72
2021/10/12 10:38:20;;;;;;;31.27;22.92;;;16.80;54.90;;;;;;5061967;28;20024;-74
2021/10/12 10:40:47;;;;;;;41.73;26.70;;;16.80;55.50;;;;;;5059536;28;20037;-70
2021/10/12 10:43:13;;;;;;;34.78;25.10;;;17.00;55.70;;;;;;5052429;28;20333;-69
2021/10/12 10:45:50;;;;;;;34.10;22.42;;;17.10;55.10;;;;;;5071879;28;20044;-70
2021/10/12 10:48:20;;;;;;;23.83;17.38;;;17.40;54.20;;;;;;5045619;28;20075;-69
2021/10/12 10:50:47;;;;;;;24.80;17.15;;;17.90;52.70;;;;;;5064285;28;20139;-71
2021/10/12 10:53:13;;;;;;;25.95;19.55;;;18.50;51.00;;;;;;5071503;28;20154;-71
2021/10/12 10:55:45;;;;;;;38.50;18.48;;;18.60;49.90;;;;;;5064443;28;20029;-70
2021/10/12 10:58:21;;;;;;;25.50;15.82;;;18.50;50.00;;;;;;5048005;28;20108;-72
2021/10/12 11:00:51;;;;;;;19.88;11.43;;;18.50;49.70;;;;;;5066620;28;20028;-70
2021/10/12 11:03:29;;;;;;;27.98;15.00;;;18.40;48.20;;;;;;5035498;28;20059;-70
2021/10/12 11:06:00;;;;;;;29.30;17.17;;;18.60;48.40;;;;;;5059356;28;20379;-69
2021/10/12 11:08:32;;;;;;;63.17;33.60;;;19.00;48.20;;;;;;5037558;28;20110;-70
2021/10/12 11:11:02;;;;;;;40.35;25.35;;;19.30;47.60;;;;;;5046863;28;20025;-70
2021/10/12 11:13:40;;;;;;;57.67;35.80;;;19.20;47.60;;;;;;5070564;28;20065;-70
2021/10/12 11:16:09;;;;;;;36.08;25.42;;;18.90;47.50;;;;;;5038593;28;20426;-70
2021/10/12 11:18:36;;;;;;;28.83;19.80;;;18.40;47.20;;;;;;5064298;28;20036;-69
2021/10/12 11:21:04;;;;;;;28.40;18.05;;;18.00;47.30;;;;;;5053669;28;20028;-70
2021/10/12 11:23:39;;;;;;;32.30;19.92;;;17.60;47.80;;;;;;5070731;28;20045;-73
2021/10/12 11:26:15;;;;;;;31.25;19.40;;;17.30;49.00;;;;;;5074875;28;20036;-70
2021/10/12 11:28:46;;;;;;;31.75;20.33;;;17.10;49.80;;;;;;5044955;28;20455;-69
2021/10/12 11:31:14;;;;;;;30.50;19.92;;;16.90;50.30;;;;;;5074922;28;20474;-70
2021/10/12 11:33:54;;;;;;;40.70;20.20;;;16.70;50.90;;;;;;5046285;28;20025;-69
2021/10/12 11:36:26;;;;;;;29.35;20.42;;;16.80;51.20;;;;;;5038988;28;20822;-70
2021/10/12 11:38:57;;;;;;;31.38;18.38;;;16.70;51.60;;;;;;5057320;28;20102;-70
2021/10/12 11:41:30;;;;;;;31.48;20.02;;;16.70;51.60;;;;;;5074513;28;20021;-71
2021/10/12 11:43:58;;;;;;;29.08;19.63;;;16.60;51.90;;;;;;5075232;28;20024;-70
2021/10/12 11:46:29;;;;;;;33.20;17.58;;;16.60;52.10;;;;;;5066161;28;20408;-69
2021/10/12 11:48:57;;;;;;;43.60;18.95;;;16.60;52.30;;;;;;5052253;28;20021;-69
2021/10/12 11:51:32;;;;;;;28.60;17.90;;;16.40;52.30;;;;;;5046457;28;20112;-71
2021/10/12 11:54:00;;;;;;;32.17;18.23;;;16.30;52.40;;;;;;5075155;28;20090;-70
2021/10/12 11:56:26;;;;;;;29.98;18.05;;;16.10;52.70;;;;;;5074168;28;20032;-70
2021/10/12 11:58:57;;;;;;;24.08;16.20;;;15.90;53.50;;;;;;5063198;28;20082;-71
2021/10/12 12:01:31;;;;;;;28.83;16.83;;;15.80;54.20;;;;;;5042674;28;20091;-73
2021/10/12 12:03:58;;;;;;;28.05;17.15;;;15.70;55.00;;;;;;5037714;28;20098;-70
2021/10/12 12:06:27;;;;;;;34.50;17.63;;;15.60;55.40;;;;;;5071250;28;20055;-71
2021/10/12 12:08:55;;;;;;;46.78;19.95;;;15.50;55.50;;;;;;5067487;28;20028;-71
2021/10/12 12:11:25;;;;;;;37.22;19.00;;;15.30;55.90;;;;;;5067240;28;20028;-71
2021/10/12 12:13:53;;;;;;;32.80;19.25;;;15.20;56.50;;;;;;5057742;28;20029;-74
2021/10/12 12:16:19;;;;;;;25.70;17.55;;;15.10;57.50;;;;;;5072895;28;20032;-70
2021/10/12 12:18:45;;;;;;;27.77;17.25;;;15.00;57.30;;;;;;5073121;28;20044;-72
2021/10/12 12:21:11;;;;;;;27.77;17.60;;;14.80;57.70;;;;;;5051670;28;20021;-73
2021/10/12 12:23:38;;;;;;;30.25;18.20;;;14.70;57.70;;;;;;5039154;28;20025;-71
2021/10/12 12:26:10;;;;;;;24.38;16.75;;;14.60;57.90;;;;;;5037398;28;20498;-71